Terminal Aerodrome Forecast
Issued by NWS Cleveland, OH

Home | Current Version | Previous Version | Text Only | Print | Product List | Glossary On
Versions: 1 2 3 4 5 6 7 8 9 10 11 12 13 14 15 16 17 18
650
FTUS41 KCLE 041730
TAFYNG
TAF
KYNG 041730Z 0418/0518 12008KT P6SM OVC200
     FM042200 12008KT P6SM SCT035 OVC100
      TEMPO 0422/0424 OVC035
     FM050000 12008KT P6SM SCT020 OVC035
      TEMPO 0500/0502 5SM -RA OVC020
     FM050200 15010KT 5SM -RA BR OVC015
      TEMPO 0502/0506 3SM -RASN BR OVC008
     FM050600 22012KT 6SM -DZ OVC008
     FM051500 25010KT P6SM OVC015=

USA.gov is the U.S. government's official web portal to all federal, state and local government web resources and services.